sensor_id;sensor_type;location;lat;lon;timestamp;P1;durP1;ratioP1;P2;durP2;ratioP2
37971;SDS011;23794;48.234;8.344;2023-02-19T00:01:41;2.83;;;1.75;;
37971;SDS011;23794;48.234;8.344;2023-02-19T00:04:16;3.25;;;1.65;;
37971;SDS011;23794;48.234;8.344;2023-02-19T00:06:45;3.38;;;1.65;;
37971;SDS011;23794;48.234;8.344;2023-02-19T00:09:13;2.42;;;1.23;;
37971;SDS011;23794;48.234;8.344;2023-02-19T00:11:41;2.40;;;1.48;;
37971;SDS011;23794;48.234;8.344;2023-02-19T00:14:09;2.47;;;1.50;;
37971;SDS011;23794;48.234;8.344;2023-02-19T00:16:40;4.03;;;1.67;;
37971;SDS011;23794;48.234;8.344;2023-02-19T00:19:09;2.00;;;1.38;;
37971;SDS011;23794;48.234;8.344;2023-02-19T00:24:05;3.78;;;1.88;;
37971;SDS011;23794;48.234;8.344;2023-02-19T00:26:33;2.13;;;1.52;;
37971;SDS011;23794;48.234;8.344;2023-02-19T00:29:00;3.78;;;1.80;;
37971;SDS011;23794;48.234;8.344;2023-02-19T00:31:31;2.90;;;1.42;;
37971;SDS011;23794;48.234;8.344;2023-02-19T00:34:01;2.15;;;1.25;;
37971;SDS011;23794;48.234;8.344;2023-02-19T00:36:30;2.03;;;1.23;;
37971;SDS011;23794;48.234;8.344;2023-02-19T00:38:57;1.92;;;1.55;;
37971;SDS011;23794;48.234;8.344;2023-02-19T00:41:24;2.17;;;1.15;;
37971;SDS011;23794;48.234;8.344;2023-02-19T00:49:02;2.00;;;1.35;;
37971;SDS011;23794;48.234;8.344;2023-02-19T00:51:31;3.08;;;1.20;;
37971;SDS011;23794;48.234;8.344;2023-02-19T00:54:03;2.00;;;1.50;;
37971;SDS011;23794;48.234;8.344;2023-02-19T00:56:31;1.85;;;1.30;;
37971;SDS011;23794;48.234;8.344;2023-02-19T00:58:58;1.65;;;1.20;;
37971;SDS011;23794;48.234;8.344;2023-02-19T01:01:25;2.03;;;1.30;;
37971;SDS011;23794;48.234;8.344;2023-02-19T01:03:51;2.08;;;1.40;;
37971;SDS011;23794;48.234;8.344;2023-02-19T01:06:19;1.23;;;0.90;;
37971;SDS011;23794;48.234;8.344;2023-02-19T01:08:46;1.70;;;1.20;;
37971;SDS011;23794;48.234;8.344;2023-02-19T01:11:13;2.35;;;1.48;;
37971;SDS011;23794;48.234;8.344;2023-02-19T01:13:40;3.20;;;1.40;;
37971;SDS011;23794;48.234;8.344;2023-02-19T01:16:15;2.03;;;1.20;;
37971;SDS011;23794;48.234;8.344;2023-02-19T01:18:44;2.03;;;0.98;;
37971;SDS011;23794;48.234;8.344;2023-02-19T01:21:13;1.40;;;0.80;;
37971;SDS011;23794;48.234;8.344;2023-02-19T01:23:41;1.35;;;1.00;;
37971;SDS011;23794;48.234;8.344;2023-02-19T01:26:13;1.75;;;1.10;;
37971;SDS011;23794;48.234;8.344;2023-02-19T01:28:42;1.40;;;1.02;;
37971;SDS011;23794;48.234;8.344;2023-02-19T01:31:14;1.30;;;1.00;;
37971;SDS011;23794;48.234;8.344;2023-02-19T01:33:44;2.45;;;1.27;;
37971;SDS011;23794;48.234;8.344;2023-02-19T01:36:12;1.55;;;0.95;;
37971;SDS011;23794;48.234;8.344;2023-02-19T01:38:40;1.55;;;1.10;;
37971;SDS011;23794;48.234;8.344;2023-02-19T01:41:09;1.17;;;0.85;;
37971;SDS011;23794;48.234;8.344;2023-02-19T01:43:57;2.13;;;1.42;;
37971;SDS011;23794;48.234;8.344;2023-02-19T01:48:59;1.63;;;1.10;;
37971;SDS011;23794;48.234;8.344;2023-02-19T01:51:29;1.45;;;1.13;;
37971;SDS011;23794;48.234;8.344;2023-02-19T01:53:59;2.75;;;1.20;;
37971;SDS011;23794;48.234;8.344;2023-02-19T01:56:30;1.58;;;1.10;;
37971;SDS011;23794;48.234;8.344;2023-02-19T01:58:59;2.20;;;1.00;;
37971;SDS011;23794;48.234;8.344;2023-02-19T02:01:27;1.70;;;1.30;;
37971;SDS011;23794;48.234;8.344;2023-02-19T02:03:54;2.53;;;1.17;;
37971;SDS011;23794;48.234;8.344;2023-02-19T02:06:25;2.17;;;1.27;;
37971;SDS011;23794;48.234;8.344;2023-02-19T02:08:56;1.52;;;1.10;;
37971;SDS011;23794;48.234;8.344;2023-02-19T02:11:49;2.65;;;1.17;;
37971;SDS011;23794;48.234;8.344;2023-02-19T02:14:20;3.08;;;1.58;;
37971;SDS011;23794;48.234;8.344;2023-02-19T02:22:06;1.63;;;1.25;;
37971;SDS011;23794;48.234;8.344;2023-02-19T02:28:00;2.05;;;1.30;;
37971;SDS011;23794;48.234;8.344;2023-02-19T02:34:35;1.92;;;1.27;;
37971;SDS011;23794;48.234;8.344;2023-02-19T02:37:04;1.83;;;1.30;;
37971;SDS011;23794;48.234;8.344;2023-02-19T02:39:34;2.35;;;1.60;;
37971;SDS011;23794;48.234;8.344;2023-02-19T02:42:03;2.83;;;1.30;;
37971;SDS011;23794;48.234;8.344;2023-02-19T02:44:57;1.73;;;1.38;;
37971;SDS011;23794;48.234;8.344;2023-02-19T02:50:37;2.08;;;1.50;;
37971;SDS011;23794;48.234;8.344;2023-02-19T02:53:49;2.47;;;1.45;;
37971;SDS011;23794;48.234;8.344;2023-02-19T02:56:37;2.17;;;1.50;;
37971;SDS011;23794;48.234;8.344;2023-02-19T02:59:07;1.98;;;1.50;;
37971;SDS011;23794;48.234;8.344;2023-02-19T03:07:27;3.08;;;1.85;;
37971;SDS011;23794;48.234;8.344;2023-02-19T03:09:59;3.53;;;1.98;;
37971;SDS011;23794;48.234;8.344;2023-02-19T03:12:30;2.20;;;1.67;;
37971;SDS011;23794;48.234;8.344;2023-02-19T03:15:17;2.10;;;1.80;;
37971;SDS011;23794;48.234;8.344;2023-02-19T03:18:04;2.92;;;2.05;;
37971;SDS011;23794;48.234;8.344;2023-02-19T03:20:55;3.15;;;1.58;;
37971;SDS011;23794;48.234;8.344;2023-02-19T03:23:24;3.03;;;1.48;;
37971;SDS011;23794;48.234;8.344;2023-02-19T03:28:49;2.33;;;1.45;;
37971;SDS011;23794;48.234;8.344;2023-02-19T03:31:40;1.47;;;1.00;;
37971;SDS011;23794;48.234;8.344;2023-02-19T03:34:09;3.13;;;1.48;;
37971;SDS011;23794;48.234;8.344;2023-02-19T03:36:45;1.27;;;1.08;;
37971;SDS011;23794;48.234;8.344;2023-02-19T03:39:19;1.90;;;1.40;;
37971;SDS011;23794;48.234;8.344;2023-02-19T03:41:59;1.52;;;1.20;;
37971;SDS011;23794;48.234;8.344;2023-02-19T03:49:50;2.53;;;1.40;;
37971;SDS011;23794;48.234;8.344;2023-02-19T03:55:25;4.10;;;1.63;;
37971;SDS011;23794;48.234;8.344;2023-02-19T04:01:18;2.80;;;1.50;;
37971;SDS011;23794;48.234;8.344;2023-02-19T04:04:07;1.73;;;1.35;;
37971;SDS011;23794;48.234;8.344;2023-02-19T04:06:39;1.92;;;1.35;;
37971;SDS011;23794;48.234;8.344;2023-02-19T04:09:09;2.03;;;1.33;;
37971;SDS011;23794;48.234;8.344;2023-02-19T04:11:41;2.13;;;1.42;;
37971;SDS011;23794;48.234;8.344;2023-02-19T04:14:13;3.15;;;1.20;;
37971;SDS011;23794;48.234;8.344;2023-02-19T04:16:45;1.80;;;1.08;;
37971;SDS011;23794;48.234;8.344;2023-02-19T04:19:17;2.00;;;1.30;;
37971;SDS011;23794;48.234;8.344;2023-02-19T04:21:47;1.90;;;1.50;;
37971;SDS011;23794;48.234;8.344;2023-02-19T04:24:21;1.65;;;1.30;;
37971;SDS011;23794;48.234;8.344;2023-02-19T04:26:51;1.27;;;1.00;;
37971;SDS011;23794;48.234;8.344;2023-02-19T04:29:20;1.83;;;1.50;;
37971;SDS011;23794;48.234;8.344;2023-02-19T04:31:46;1.58;;;1.05;;
37971;SDS011;23794;48.234;8.344;2023-02-19T04:34:13;2.10;;;1.30;;
37971;SDS011;23794;48.234;8.344;2023-02-19T04:36:40;2.03;;;1.45;;
37971;SDS011;23794;48.234;8.344;2023-02-19T04:39:07;2.35;;;1.38;;
37971;SDS011;23794;48.234;8.344;2023-02-19T04:41:33;1.60;;;1.23;;
37971;SDS011;23794;48.234;8.344;2023-02-19T04:44:00;2.00;;;1.20;;
37971;SDS011;23794;48.234;8.344;2023-02-19T04:46:27;4.50;;;1.00;;
37971;SDS011;23794;48.234;8.344;2023-02-19T04:48:54;1.70;;;1.00;;
37971;SDS011;23794;48.234;8.344;2023-02-19T04:51:21;1.63;;;1.10;;
37971;SDS011;23794;48.234;8.344;2023-02-19T04:53:47;2.88;;;1.67;;
37971;SDS011;23794;48.234;8.344;2023-02-19T04:56:14;1.35;;;0.90;;
37971;SDS011;23794;48.234;8.344;2023-02-19T04:58:42;1.70;;;1.20;;
37971;SDS011;23794;48.234;8.344;2023-02-19T05:01:10;1.90;;;1.15;;
37971;SDS011;23794;48.234;8.344;2023-02-19T05:03:38;1.58;;;1.15;;
37971;SDS011;23794;48.234;8.344;2023-02-19T05:06:06;2.17;;;1.45;;
37971;SDS011;23794;48.234;8.344;2023-02-19T05:08:34;2.05;;;1.20;;
37971;SDS011;23794;48.234;8.344;2023-02-19T05:11:01;1.10;;;0.85;;
37971;SDS011;23794;48.234;8.344;2023-02-19T05:13:30;1.80;;;1.10;;
37971;SDS011;23794;48.234;8.344;2023-02-19T05:16:08;1.95;;;1.23;;
37971;SDS011;23794;48.234;8.344;2023-02-19T05:18:41;1.80;;;1.30;;
37971;SDS011;23794;48.234;8.344;2023-02-19T05:21:10;3.42;;;1.65;;
37971;SDS011;23794;48.234;8.344;2023-02-19T05:23:37;1.40;;;0.90;;
37971;SDS011;23794;48.234;8.344;2023-02-19T05:26:10;1.63;;;1.30;;
37971;SDS011;23794;48.234;8.344;2023-02-19T05:28:39;1.77;;;1.05;;
37971;SDS011;23794;48.234;8.344;2023-02-19T05:31:06;1.95;;;1.15;;
37971;SDS011;23794;48.234;8.344;2023-02-19T05:33:35;2.92;;;1.23;;
37971;SDS011;23794;48.234;8.344;2023-02-19T05:36:04;1.27;;;1.00;;
37971;SDS011;23794;48.234;8.344;2023-02-19T05:38:33;1.73;;;1.20;;
37971;SDS011;23794;48.234;8.344;2023-02-19T05:41:07;2.25;;;1.40;;
37971;SDS011;23794;48.234;8.344;2023-02-19T05:43:36;2.10;;;1.23;;
37971;SDS011;23794;48.234;8.344;2023-02-19T05:46:04;2.40;;;1.42;;
37971;SDS011;23794;48.234;8.344;2023-02-19T05:48:31;2.33;;;1.10;;
37971;SDS011;23794;48.234;8.344;2023-02-19T05:51:06;1.70;;;1.38;;
37971;SDS011;23794;48.234;8.344;2023-02-19T05:53:35;2.00;;;1.20;;
37971;SDS011;23794;48.234;8.344;2023-02-19T05:56:02;1.85;;;1.10;;
37971;SDS011;23794;48.234;8.344;2023-02-19T05:58:30;1.45;;;1.33;;
37971;SDS011;23794;48.234;8.344;2023-02-19T06:00:57;1.65;;;1.25;;
37971;SDS011;23794;48.234;8.344;2023-02-19T06:03:23;3.35;;;2.10;;
37971;SDS011;23794;48.234;8.344;2023-02-19T06:05:50;2.38;;;1.67;;
37971;SDS011;23794;48.234;8.344;2023-02-19T06:08:17;1.77;;;1.40;;
37971;SDS011;23794;48.234;8.344;2023-02-19T06:10:43;1.85;;;1.50;;
37971;SDS011;23794;48.234;8.344;2023-02-19T06:13:10;2.47;;;1.63;;
37971;SDS011;23794;48.234;8.344;2023-02-19T06:15:37;2.40;;;1.88;;
37971;SDS011;23794;48.234;8.344;2023-02-19T06:18:04;1.70;;;1.38;;
37971;SDS011;23794;48.234;8.344;2023-02-19T06:20:31;2.13;;;1.58;;
37971;SDS011;23794;48.234;8.344;2023-02-19T06:22:58;1.90;;;1.70;;
37971;SDS011;23794;48.234;8.344;2023-02-19T06:25:25;2.42;;;1.30;;
37971;SDS011;23794;48.234;8.344;2023-02-19T06:27:51;3.78;;;1.20;;
37971;SDS011;23794;48.234;8.344;2023-02-19T06:30:18;1.35;;;1.10;;
37971;SDS011;23794;48.234;8.344;2023-02-19T06:32:45;2.10;;;1.60;;
37971;SDS011;23794;48.234;8.344;2023-02-19T06:35:12;1.77;;;1.27;;
37971;SDS011;23794;48.234;8.344;2023-02-19T06:37:39;1.40;;;1.02;;
37971;SDS011;23794;48.234;8.344;2023-02-19T06:40:06;0.93;;;0.65;;
37971;SDS011;23794;48.234;8.344;2023-02-19T06:42:33;1.33;;;0.80;;
37971;SDS011;23794;48.234;8.344;2023-02-19T06:45:01;1.00;;;0.80;;
37971;SDS011;23794;48.234;8.344;2023-02-19T06:47:31;1.20;;;0.88;;
37971;SDS011;23794;48.234;8.344;2023-02-19T06:49:59;1.23;;;0.60;;
37971;SDS011;23794;48.234;8.344;2023-02-19T06:52:26;0.65;;;0.40;;
37971;SDS011;23794;48.234;8.344;2023-02-19T06:54:56;0.95;;;0.50;;
37971;SDS011;23794;48.234;8.344;2023-02-19T06:57:23;0.88;;;0.50;;
37971;SDS011;23794;48.234;8.344;2023-02-19T06:59:52;0.52;;;0.40;;
37971;SDS011;23794;48.234;8.344;2023-02-19T07:02:18;0.50;;;0.30;;
37971;SDS011;23794;48.234;8.344;2023-02-19T07:04:58;0.32;;;0.30;;
37971;SDS011;23794;48.234;8.344;2023-02-19T07:07:30;0.52;;;0.30;;
37971;SDS011;23794;48.234;8.344;2023-02-19T07:09:57;0.43;;;0.40;;
37971;SDS011;23794;48.234;8.344;2023-02-19T07:12:24;0.40;;;0.28;;
37971;SDS011;23794;48.234;8.344;2023-02-19T07:14:53;0.40;;;0.40;;
37971;SDS011;23794;48.234;8.344;2023-02-19T07:17:20;0.57;;;0.40;;
37971;SDS011;23794;48.234;8.344;2023-02-19T07:19:47;0.35;;;0.25;;
37971;SDS011;23794;48.234;8.344;2023-02-19T07:22:17;0.50;;;0.40;;
37971;SDS011;23794;48.234;8.344;2023-02-19T07:24:44;0.70;;;0.45;;
37971;SDS011;23794;48.234;8.344;2023-02-19T07:27:14;0.50;;;0.32;;
37971;SDS011;23794;48.234;8.344;2023-02-19T07:29:40;0.82;;;0.50;;
37971;SDS011;23794;48.234;8.344;2023-02-19T07:32:07;0.68;;;0.38;;
37971;SDS011;23794;48.234;8.344;2023-02-19T07:34:36;1.65;;;0.50;;
37971;SDS011;23794;48.234;8.344;2023-02-19T07:37:03;1.15;;;0.40;;
37971;SDS011;23794;48.234;8.344;2023-02-19T07:39:30;0.77;;;0.40;;
37971;SDS011;23794;48.234;8.344;2023-02-19T07:41:57;0.80;;;0.63;;
37971;SDS011;23794;48.234;8.344;2023-02-19T07:44:25;1.17;;;0.50;;
37971;SDS011;23794;48.234;8.344;2023-02-19T07:46:52;1.55;;;0.70;;
37971;SDS011;23794;48.234;8.344;2023-02-19T07:49:21;1.35;;;0.65;;
37971;SDS011;23794;48.234;8.344;2023-02-19T07:51:47;0.95;;;0.70;;
37971;SDS011;23794;48.234;8.344;2023-02-19T07:54:15;3.33;;;0.85;;
37971;SDS011;23794;48.234;8.344;2023-02-19T07:56:42;1.58;;;1.10;;
37971;SDS011;23794;48.234;8.344;2023-02-19T07:59:08;1.42;;;0.80;;
37971;SDS011;23794;48.234;8.344;2023-02-19T08:01:36;0.98;;;0.68;;
37971;SDS011;23794;48.234;8.344;2023-02-19T08:04:21;1.73;;;0.80;;
37971;SDS011;23794;48.234;8.344;2023-02-19T08:06:48;1.13;;;0.80;;
37971;SDS011;23794;48.234;8.344;2023-02-19T08:09:15;2.00;;;0.90;;
37971;SDS011;23794;48.234;8.344;2023-02-19T08:11:42;0.90;;;0.52;;
37971;SDS011;23794;48.234;8.344;2023-02-19T08:14:29;1.95;;;1.20;;
37971;SDS011;23794;48.234;8.344;2023-02-19T08:16:55;2.20;;;1.08;;
37971;SDS011;23794;48.234;8.344;2023-02-19T08:19:22;2.13;;;0.70;;
37971;SDS011;23794;48.234;8.344;2023-02-19T08:21:50;1.88;;;0.90;;
37971;SDS011;23794;48.234;8.344;2023-02-19T08:24:19;0.73;;;0.52;;
37971;SDS011;23794;48.234;8.344;2023-02-19T08:26:46;1.08;;;0.80;;
37971;SDS011;23794;48.234;8.344;2023-02-19T08:29:13;0.90;;;0.55;;
37971;SDS011;23794;48.234;8.344;2023-02-19T08:31:40;1.55;;;1.05;;
37971;SDS011;23794;48.234;8.344;2023-02-19T08:34:07;1.38;;;0.85;;
37971;SDS011;23794;48.234;8.344;2023-02-19T08:36:34;1.00;;;0.70;;
37971;SDS011;23794;48.234;8.344;2023-02-19T08:39:00;0.82;;;0.60;;
37971;SDS011;23794;48.234;8.344;2023-02-19T08:41:27;1.52;;;0.98;;
37971;SDS011;23794;48.234;8.344;2023-02-19T08:43:54;1.30;;;0.88;;
37971;SDS011;23794;48.234;8.344;2023-02-19T08:46:21;1.10;;;0.75;;
37971;SDS011;23794;48.234;8.344;2023-02-19T08:48:48;3.70;;;2.88;;
37971;SDS011;23794;48.234;8.344;2023-02-19T08:51:14;0.90;;;0.60;;
37971;SDS011;23794;48.234;8.344;2023-02-19T08:53:41;0.95;;;0.70;;
37971;SDS011;23794;48.234;8.344;2023-02-19T08:56:10;0.98;;;0.80;;
37971;SDS011;23794;48.234;8.344;2023-02-19T08:58:38;4.22;;;1.75;;
37971;SDS011;23794;48.234;8.344;2023-02-19T09:01:12;1.95;;;1.00;;
37971;SDS011;23794;48.234;8.344;2023-02-19T09:03:41;2.00;;;1.13;;
37971;SDS011;23794;48.234;8.344;2023-02-19T09:06:11;1.30;;;0.80;;
37971;SDS011;23794;48.234;8.344;2023-02-19T09:08:40;1.80;;;0.95;;
37971;SDS011;23794;48.234;8.344;2023-02-19T09:11:07;2.40;;;1.00;;
37971;SDS011;23794;48.234;8.344;2023-02-19T09:13:34;1.02;;;0.70;;
37971;SDS011;23794;48.234;8.344;2023-02-19T09:16:03;2.40;;;0.70;;
37971;SDS011;23794;48.234;8.344;2023-02-19T09:18:31;0.68;;;0.60;;
37971;SDS011;23794;48.234;8.344;2023-02-19T09:20:59;1.23;;;0.63;;
37971;SDS011;23794;48.234;8.344;2023-02-19T09:23:31;1.35;;;0.70;;
37971;SDS011;23794;48.234;8.344;2023-02-19T09:26:00;1.02;;;0.80;;
37971;SDS011;23794;48.234;8.344;2023-02-19T09:28:29;1.27;;;0.80;;
37971;SDS011;23794;48.234;8.344;2023-02-19T09:30:56;1.13;;;0.70;;
37971;SDS011;23794;48.234;8.344;2023-02-19T09:33:30;1.88;;;1.00;;
37971;SDS011;23794;48.234;8.344;2023-02-19T09:35:58;1.17;;;0.82;;
37971;SDS011;23794;48.234;8.344;2023-02-19T09:38:26;1.23;;;0.70;;
37971;SDS011;23794;48.234;8.344;2023-02-19T09:40:58;2.05;;;1.00;;
37971;SDS011;23794;48.234;8.344;2023-02-19T09:43:39;0.80;;;0.70;;
37971;SDS011;23794;48.234;8.344;2023-02-19T09:46:29;1.23;;;0.80;;
37971;SDS011;23794;48.234;8.344;2023-02-19T09:49:04;1.10;;;0.63;;
37971;SDS011;23794;48.234;8.344;2023-02-19T09:52:17;1.17;;;0.68;;
37971;SDS011;23794;48.234;8.344;2023-02-19T09:55:13;1.30;;;0.70;;
37971;SDS011;23794;48.234;8.344;2023-02-19T09:57:57;1.02;;;0.55;;
37971;SDS011;23794;48.234;8.344;2023-02-19T10:00:28;1.00;;;0.70;;
37971;SDS011;23794;48.234;8.344;2023-02-19T10:03:21;1.30;;;1.00;;
37971;SDS011;23794;48.234;8.344;2023-02-19T10:05:52;1.40;;;1.08;;
37971;SDS011;23794;48.234;8.344;2023-02-19T10:08:24;1.02;;;0.73;;
37971;SDS011;23794;48.234;8.344;2023-02-19T10:10:51;1.30;;;0.88;;
37971;SDS011;23794;48.234;8.344;2023-02-19T10:13:28;2.50;;;0.98;;
37971;SDS011;23794;48.234;8.344;2023-02-19T10:16:01;0.80;;;0.60;;
37971;SDS011;23794;48.234;8.344;2023-02-19T10:18:36;1.40;;;1.23;;
37971;SDS011;23794;48.234;8.344;2023-02-19T10:21:24;1.00;;;0.80;;
37971;SDS011;23794;48.234;8.344;2023-02-19T10:23:58;1.70;;;0.93;;
37971;SDS011;23794;48.234;8.344;2023-02-19T10:26:28;0.90;;;0.80;;
37971;SDS011;23794;48.234;8.344;2023-02-19T10:29:00;1.48;;;0.90;;
37971;SDS011;23794;48.234;8.344;2023-02-19T10:31:31;1.65;;;1.02;;
37971;SDS011;23794;48.234;8.344;2023-02-19T10:34:00;1.23;;;0.87;;
37971;SDS011;23794;48.234;8.344;2023-02-19T10:36:31;1.33;;;0.80;;
37971;SDS011;23794;48.234;8.344;2023-02-19T10:39:02;1.30;;;0.90;;
37971;SDS011;23794;48.234;8.344;2023-02-19T10:41:43;1.40;;;0.93;;
37971;SDS011;23794;48.234;8.344;2023-02-19T10:44:14;1.70;;;1.00;;
37971;SDS011;23794;48.234;8.344;2023-02-19T10:46:47;1.98;;;1.10;;
37971;SDS011;23794;48.234;8.344;2023-02-19T10:49:42;1.52;;;1.02;;
37971;SDS011;23794;48.234;8.344;2023-02-19T10:52:23;2.22;;;0.93;;
37971;SDS011;23794;48.234;8.344;2023-02-19T10:54:57;2.70;;;1.00;;
37971;SDS011;23794;48.234;8.344;2023-02-19T10:57:42;2.08;;;1.00;;
37971;SDS011;23794;48.234;8.344;2023-02-19T11:02:42;1.77;;;1.02;;
37971;SDS011;23794;48.234;8.344;2023-02-19T11:07:52;1.83;;;1.20;;
37971;SDS011;23794;48.234;8.344;2023-02-19T11:10:25;1.80;;;1.02;;
37971;SDS011;23794;48.234;8.344;2023-02-19T11:13:02;2.95;;;0.95;;
37971;SDS011;23794;48.234;8.344;2023-02-19T11:15:32;1.40;;;0.95;;
37971;SDS011;23794;48.234;8.344;2023-02-19T11:20:50;1.25;;;0.93;;
37971;SDS011;23794;48.234;8.344;2023-02-19T11:24:12;1.08;;;0.80;;
37971;SDS011;23794;48.234;8.344;2023-02-19T11:26:21;1.10;;;0.80;;
37971;SDS011;23794;48.234;8.344;2023-02-19T11:28:54;0.90;;;0.57;;
37971;SDS011;23794;48.234;8.344;2023-02-19T11:31:24;2.10;;;0.95;;
37971;SDS011;23794;48.234;8.344;2023-02-19T11:37:10;0.63;;;0.63;;
37971;SDS011;23794;48.234;8.344;2023-02-19T11:39:45;0.82;;;0.65;;
37971;SDS011;23794;48.234;8.344;2023-02-19T11:53:31;1.20;;;0.70;;
37971;SDS011;23794;48.234;8.344;2023-02-19T11:59:21;0.93;;;0.60;;
37971;SDS011;23794;48.234;8.344;2023-02-19T12:05:02;1.42;;;0.82;;
37971;SDS011;23794;48.234;8.344;2023-02-19T12:07:58;1.38;;;0.90;;
37971;SDS011;23794;48.234;8.344;2023-02-19T12:21:38;1.77;;;1.00;;
37971;SDS011;23794;48.234;8.344;2023-02-19T12:38:01;1.55;;;1.02;;
37971;SDS011;23794;48.234;8.344;2023-02-19T12:43:26;1.17;;;0.80;;
37971;SDS011;23794;48.234;8.344;2023-02-19T12:46:03;2.28;;;1.30;;
37971;SDS011;23794;48.234;8.344;2023-02-19T12:54:03;2.42;;;1.17;;
37971;SDS011;23794;48.234;8.344;2023-02-19T12:56:38;2.83;;;1.30;;
37971;SDS011;23794;48.234;8.344;2023-02-19T12:59:28;2.05;;;1.30;;
37971;SDS011;23794;48.234;8.344;2023-02-19T13:02:12;1.88;;;1.23;;
37971;SDS011;23794;48.234;8.344;2023-02-19T13:12:42;2.03;;;1.13;;
37971;SDS011;23794;48.234;8.344;2023-02-19T13:15:28;3.42;;;1.20;;
37971;SDS011;23794;48.234;8.344;2023-02-19T13:18:00;1.90;;;1.20;;
37971;SDS011;23794;48.234;8.344;2023-02-19T13:20:35;2.42;;;1.38;;
37971;SDS011;23794;48.234;8.344;2023-02-19T13:23:07;1.80;;;1.10;;
37971;SDS011;23794;48.234;8.344;2023-02-19T13:38:10;3.30;;;1.40;;
37971;SDS011;23794;48.234;8.344;2023-02-19T13:40:39;2.42;;;1.10;;
37971;SDS011;23794;48.234;8.344;2023-02-19T13:45:46;2.67;;;1.20;;
37971;SDS011;23794;48.234;8.344;2023-02-19T13:48:29;2.60;;;0.95;;
37971;SDS011;23794;48.234;8.344;2023-02-19T13:58:56;2.85;;;1.30;;
37971;SDS011;23794;48.234;8.344;2023-02-19T14:12:00;2.15;;;0.95;;
37971;SDS011;23794;48.234;8.344;2023-02-19T14:14:41;2.50;;;1.10;;
37971;SDS011;23794;48.234;8.344;2023-02-19T14:17:24;2.72;;;1.15;;
37971;SDS011;23794;48.234;8.344;2023-02-19T14:20:02;2.90;;;0.95;;
37971;SDS011;23794;48.234;8.344;2023-02-19T14:25:23;3.30;;;1.13;;
37971;SDS011;23794;48.234;8.344;2023-02-19T14:28:03;5.28;;;1.30;;
37971;SDS011;23794;48.234;8.344;2023-02-19T14:30:32;2.08;;;1.20;;
37971;SDS011;23794;48.234;8.344;2023-02-19T14:33:01;2.00;;;1.10;;
37971;SDS011;23794;48.234;8.344;2023-02-19T14:35:38;3.42;;;1.05;;
37971;SDS011;23794;48.234;8.344;2023-02-19T14:38:14;3.17;;;1.05;;
37971;SDS011;23794;48.234;8.344;2023-02-19T14:40:51;7.50;;;1.83;;
37971;SDS011;23794;48.234;8.344;2023-02-19T14:43:27;4.50;;;1.40;;
37971;SDS011;23794;48.234;8.344;2023-02-19T14:45:59;2.53;;;0.77;;
37971;SDS011;23794;48.234;8.344;2023-02-19T14:48:47;3.70;;;1.48;;
37971;SDS011;23794;48.234;8.344;2023-02-19T14:54:32;4.63;;;1.05;;
37971;SDS011;23794;48.234;8.344;2023-02-19T14:57:16;4.32;;;1.02;;
37971;SDS011;23794;48.234;8.344;2023-02-19T14:59:52;3.92;;;1.30;;
37971;SDS011;23794;48.234;8.344;2023-02-19T15:02:28;5.20;;;1.17;;
37971;SDS011;23794;48.234;8.344;2023-02-19T15:04:58;3.22;;;1.40;;
37971;SDS011;23794;48.234;8.344;2023-02-19T15:07:30;5.35;;;2.42;;
37971;SDS011;23794;48.234;8.344;2023-02-19T15:10:02;2.35;;;1.50;;
37971;SDS011;23794;48.234;8.344;2023-02-19T15:12:58;6.80;;;1.90;;
37971;SDS011;23794;48.234;8.344;2023-02-19T15:15:33;5.32;;;1.92;;
37971;SDS011;23794;48.234;8.344;2023-02-19T15:21:03;3.80;;;1.50;;
37971;SDS011;23794;48.234;8.344;2023-02-19T15:23:31;4.00;;;1.50;;
37971;SDS011;23794;48.234;8.344;2023-02-19T15:26:01;1.85;;;1.13;;
37971;SDS011;23794;48.234;8.344;2023-02-19T15:28:30;6.90;;;1.45;;
37971;SDS011;23794;48.234;8.344;2023-02-19T15:33:29;2.95;;;1.05;;
37971;SDS011;23794;48.234;8.344;2023-02-19T15:36:00;6.20;;;1.27;;
37971;SDS011;23794;48.234;8.344;2023-02-19T15:38:32;3.45;;;1.40;;
37971;SDS011;23794;48.234;8.344;2023-02-19T15:41:15;3.75;;;1.48;;
37971;SDS011;23794;48.234;8.344;2023-02-19T15:43:55;4.13;;;1.17;;
37971;SDS011;23794;48.234;8.344;2023-02-19T15:46:29;4.97;;;1.77;;
37971;SDS011;23794;48.234;8.344;2023-02-19T15:51:54;3.50;;;1.48;;
37971;SDS011;23794;48.234;8.344;2023-02-19T15:54:27;3.65;;;1.23;;
37971;SDS011;23794;48.234;8.344;2023-02-19T15:57:00;4.63;;;1.40;;
37971;SDS011;23794;48.234;8.344;2023-02-19T16:00:08;2.42;;;1.08;;
37971;SDS011;23794;48.234;8.344;2023-02-19T16:02:45;5.07;;;1.30;;
37971;SDS011;23794;48.234;8.344;2023-02-19T16:05:22;3.17;;;0.90;;
37971;SDS011;23794;48.234;8.344;2023-02-19T16:10:57;2.72;;;1.00;;
37971;SDS011;23794;48.234;8.344;2023-02-19T16:13:31;3.70;;;1.38;;
37971;SDS011;23794;48.234;8.344;2023-02-19T16:16:23;5.15;;;1.23;;
37971;SDS011;23794;48.234;8.344;2023-02-19T16:18:55;2.45;;;1.17;;
37971;SDS011;23794;48.234;8.344;2023-02-19T16:21:25;3.40;;;1.35;;
37971;SDS011;23794;48.234;8.344;2023-02-19T16:24:04;4.00;;;1.30;;
37971;SDS011;23794;48.234;8.344;2023-02-19T16:26:41;3.40;;;1.17;;
37971;SDS011;23794;48.234;8.344;2023-02-19T16:29:21;4.57;;;1.60;;
37971;SDS011;23794;48.234;8.344;2023-02-19T16:31:57;5.00;;;1.50;;
37971;SDS011;23794;48.234;8.344;2023-02-19T16:34:31;3.58;;;1.60;;
37971;SDS011;23794;48.234;8.344;2023-02-19T16:42:34;3.13;;;1.75;;
37971;SDS011;23794;48.234;8.344;2023-02-19T16:45:21;4.78;;;1.90;;
37971;SDS011;23794;48.234;8.344;2023-02-19T16:47:50;3.78;;;1.65;;
37971;SDS011;23794;48.234;8.344;2023-02-19T16:50:21;4.43;;;1.77;;
37971;SDS011;23794;48.234;8.344;2023-02-19T16:52:51;4.47;;;1.90;;
37971;SDS011;23794;48.234;8.344;2023-02-19T16:55:19;4.28;;;1.50;;
37971;SDS011;23794;48.234;8.344;2023-02-19T16:57:46;3.55;;;1.60;;
37971;SDS011;23794;48.234;8.344;2023-02-19T17:00:26;3.10;;;1.50;;
37971;SDS011;23794;48.234;8.344;2023-02-19T17:02:56;4.20;;;1.67;;
37971;SDS011;23794;48.234;8.344;2023-02-19T17:05:29;4.07;;;1.55;;
37971;SDS011;23794;48.234;8.344;2023-02-19T17:07:58;4.75;;;2.38;;
37971;SDS011;23794;48.234;8.344;2023-02-19T17:10:26;5.25;;;1.58;;
37971;SDS011;23794;48.234;8.344;2023-02-19T17:12:55;6.15;;;1.63;;
37971;SDS011;23794;48.234;8.344;2023-02-19T17:15:22;3.45;;;1.42;;
37971;SDS011;23794;48.234;8.344;2023-02-19T17:17:51;5.05;;;1.50;;
37971;SDS011;23794;48.234;8.344;2023-02-19T17:20:25;3.28;;;1.02;;
37971;SDS011;23794;48.234;8.344;2023-02-19T17:22:55;5.95;;;1.58;;
37971;SDS011;23794;48.234;8.344;2023-02-19T17:25:22;3.60;;;1.20;;
37971;SDS011;23794;48.234;8.344;2023-02-19T17:27:52;8.45;;;2.10;;
37971;SDS011;23794;48.234;8.344;2023-02-19T17:30:24;4.95;;;1.77;;
37971;SDS011;23794;48.234;8.344;2023-02-19T17:32:53;3.67;;;1.30;;
37971;SDS011;23794;48.234;8.344;2023-02-19T17:35:19;5.78;;;1.90;;
37971;SDS011;23794;48.234;8.344;2023-02-19T17:37:47;3.28;;;1.52;;
37971;SDS011;23794;48.234;8.344;2023-02-19T17:40:30;6.88;;;1.70;;
37971;SDS011;23794;48.234;8.344;2023-02-19T17:42:59;3.45;;;1.20;;
37971;SDS011;23794;48.234;8.344;2023-02-19T17:45:28;3.13;;;1.50;;
37971;SDS011;23794;48.234;8.344;2023-02-19T17:47:55;3.40;;;1.30;;
37971;SDS011;23794;48.234;8.344;2023-02-19T17:50:24;6.03;;;1.77;;
37971;SDS011;23794;48.234;8.344;2023-02-19T17:52:53;4.88;;;2.15;;
37971;SDS011;23794;48.234;8.344;2023-02-19T17:55:20;3.88;;;2.08;;
37971;SDS011;23794;48.234;8.344;2023-02-19T17:57:48;8.35;;;1.67;;
37971;SDS011;23794;48.234;8.344;2023-02-19T18:00:17;4.25;;;2.10;;
37971;SDS011;23794;48.234;8.344;2023-02-19T18:02:54;4.07;;;1.42;;
37971;SDS011;23794;48.234;8.344;2023-02-19T18:05:21;3.92;;;1.63;;
37971;SDS011;23794;48.234;8.344;2023-02-19T18:07:48;5.90;;;1.52;;
37971;SDS011;23794;48.234;8.344;2023-02-19T18:10:16;3.58;;;1.60;;